Time;durP1;ratioP1;P1;durP2;ratioP2;P2;SDS_P1;SDS_P2;PMS_P1;PMS_P2;Temp;Humidity;BMP_temperature;BMP_pressure;BME280_temperature;BME280_humidity;BME280_pressure;Samples;Min_cycle;Max_cycle;Signal;HPM_P1;HPM_P2
2022/11/14 00:00:11;;;;;;;60.10;31.00;;;;;;;5.53;100.00;99556.75;5010501;28;20048;-62
2022/11/14 00:02:59;;;;;;;62.97;31.10;;;;;;;5.55;100.00;99557.66;5008840;28;20105;-62
2022/11/14 00:05:45;;;;;;;57.00;32.10;;;;;;;5.49;100.00;99560.94;5010876;28;20082;-61
2022/11/14 00:08:29;;;;;;;54.92;29.92;;;;;;;5.17;100.00;99529.06;5010703;28;20137;-62
2022/11/14 00:11:14;;;;;;;57.65;32.05;;;;;;;5.47;100.00;99566.84;5008173;28;20162;-61
2022/11/14 00:13:59;;;;;;;60.03;31.97;;;;;;;5.34;100.00;99542.91;5010031;28;20061;-61
2022/11/14 00:16:43;;;;;;;61.00;31.37;;;;;;;5.36;100.00;99541.25;5009972;28;20076;-62
2022/11/14 00:19:27;;;;;;;63.57;32.13;;;;;;;5.45;100.00;99556.66;5009852;28;20180;-63
2022/11/14 00:22:12;;;;;;;59.43;33.97;;;;;;;5.46;100.00;99560.91;5009409;28;20068;-63
2022/11/14 00:24:56;;;;;;;59.77;31.97;;;;;;;5.41;100.00;99554.88;5003562;28;20354;-62
2022/11/14 00:27:41;;;;;;;62.07;33.77;;;;;;;5.39;100.00;99548.06;5003639;28;20500;-62
2022/11/14 00:30:27;;;;;;;61.20;33.30;;;;;;;5.39;100.00;99554.00;5004848;28;20137;-61
2022/11/14 00:33:11;;;;;;;63.73;32.60;;;;;;;5.37;100.00;99545.50;5005844;28;20108;-62
2022/11/14 00:35:56;;;;;;;63.03;33.67;;;;;;;5.41;100.00;99549.81;5010279;28;20048;-62
2022/11/14 00:38:40;;;;;;;62.00;33.03;;;;;;;5.40;100.00;99545.53;5011672;28;20103;-62
2022/11/14 00:41:25;;;;;;;65.40;34.10;;;;;;;5.37;100.00;99550.59;5020594;28;20060;-62
2022/11/14 00:44:10;;;;;;;59.40;30.77;;;;;;;5.45;100.00;99554.09;5009879;28;20064;-61
2022/11/14 00:46:54;;;;;;;57.60;31.70;;;;;;;5.39;100.00;99550.59;5008306;28;20103;-62
2022/11/14 00:49:38;;;;;;;65.83;33.53;;;;;;;5.30;100.00;99533.53;5007542;28;20073;-61
2022/11/14 00:52:23;;;;;;;62.97;32.80;;;;;;;5.30;100.00;99542.84;5008479;28;20851;-62
2022/11/14 00:55:07;;;;;;;57.93;32.67;;;;;;;5.24;100.00;99543.59;5008439;28;20080;-62
2022/11/14 00:57:51;;;;;;;58.57;30.20;;;;;;;5.22;100.00;99546.94;5010306;28;20056;-62
2022/11/14 01:00:36;;;;;;;58.47;31.63;;;;;;;5.18;100.00;99545.19;5009710;28;20049;-63
2022/11/14 01:03:21;;;;;;;;;;;;;;;5.10;100.00;99539.94;5011617;28;20416;-62
2022/11/14 01:06:07;;;;;;;61.43;31.00;;;;;;;5.04;100.00;99544.94;5011048;28;19924;-62
2022/11/14 01:08:51;;;;;;;52.80;29.93;;;;;;;4.92;100.00;99534.56;5009371;28;20052;-61
2022/11/14 01:11:37;;;;;;;56.43;29.83;;;;;;;4.83;100.00;99532.72;5003685;28;20048;-63
2022/11/14 01:14:21;;;;;;;;;;;;;;;4.79;100.00;99527.53;5005110;28;20061;-60
2022/11/14 01:17:05;;;;;;;58.37;30.43;;;;;;;4.79;100.00;99522.47;5007287;28;19972;-61
2022/11/14 01:19:49;;;;;;;58.80;30.83;;;;;;;4.72;100.00;99523.16;5009387;28;20053;-62
2022/11/14 01:22:33;;;;;;;65.67;33.83;;;;;;;4.66;100.00;99500.19;5008168;28;20154;-61
2022/11/14 01:25:18;;;;;;;62.45;32.38;;;;;;;4.73;100.00;99517.25;5010179;28;20196;-61
2022/11/14 01:28:08;;;;;;;58.97;32.13;;;;;;;4.56;100.00;99500.03;5009003;28;20052;-60
2022/11/14 01:30:52;;;;;;;59.83;30.30;;;;;;;4.54;100.00;99513.53;5006665;28;20056;-61
2022/11/14 01:33:36;;;;;;;60.77;30.57;;;;;;;4.48;100.00;99506.66;5012710;28;20139;-61
2022/11/14 01:36:20;;;;;;;58.60;30.27;;;;;;;4.39;100.00;99511.53;5012779;28;20053;-60
2022/11/14 01:39:05;;;;;;;62.63;32.10;;;;;;;4.39;100.00;99503.94;5012823;28;20060;-60
2022/11/14 01:41:49;;;;;;;59.40;30.10;;;;;;;4.44;100.00;99506.56;5011637;28;20156;-62
2022/11/14 01:44:53;;;;;;;69.50;33.10;;;;;;;4.53;100.00;99502.53;5012946;28;20083;-60
2022/11/14 01:47:38;;;;;;;59.53;30.90;;;;;;;4.56;100.00;99500.03;5014049;28;20060;-62
2022/11/14 01:50:22;;;;;;;65.07;34.37;;;;;;;4.53;100.00;99487.28;5012619;28;20060;-63
2022/11/14 01:53:06;;;;;;;68.93;34.67;;;;;;;4.55;100.00;99483.06;5012211;28;20061;-62
2022/11/14 01:55:53;;;;;;;73.07;36.00;;;;;;;4.68;100.00;99501.06;5012860;28;20053;-62
2022/11/14 01:58:42;;;;;;;77.80;38.90;;;;;;;4.65;100.00;99476.50;5010771;28;20065;-60
2022/11/14 02:01:30;;;;;;;81.83;39.67;;;;;;;4.87;100.00;99496.38;5010844;28;20049;-61
2022/11/14 02:04:22;;;;;;;83.80;37.60;;;;;;;4.90;100.00;99498.94;5013272;28;20080;-60
2022/11/14 02:07:08;;;;;;;83.37;40.13;;;;;;;4.88;100.00;99475.19;5011819;28;20400;-61
2022/11/14 02:09:53;;;;;;;95.37;40.43;;;;;;;5.07;100.00;99492.47;5009305;28;20507;-60
2022/11/14 02:12:37;;;;;;;86.50;39.27;;;;;;;4.98;100.00;99468.59;5010442;28;20468;-61
2022/11/14 02:15:23;;;;;;;85.33;40.47;;;;;;;5.03;100.00;99472.94;5009985;28;20052;-61
2022/11/14 02:18:07;;;;;;;87.32;38.72;;;;;;;5.18;100.00;99487.53;5011804;28;20492;-61
2022/11/14 02:20:52;;;;;;;87.35;39.58;;;;;;;5.21;100.00;99486.75;5011316;28;20060;-61
2022/11/14 02:23:36;;;;;;;95.50;38.63;;;;;;;5.03;100.00;99460.22;5010146;28;20061;-62
2022/11/14 02:26:21;;;;;;;90.30;38.60;;;;;;;5.13;100.00;99479.03;5025382;28;20160;-60
2022/11/14 02:29:08;;;;;;;84.60;37.22;;;;;;;5.19;100.00;99485.88;5009814;28;20060;-59
2022/11/14 02:31:52;;;;;;;84.43;38.33;;;;;;;5.12;100.00;99456.09;5010692;28;20053;-60
2022/11/14 02:34:36;;;;;;;86.13;36.20;;;;;;;5.21;100.00;99477.44;5010512;28;20061;-61
2022/11/14 02:37:20;;;;;;;83.83;38.43;;;;;;;5.21;100.00;99466.44;5009996;28;20135;-60
2022/11/14 02:40:05;;;;;;;83.90;37.77;;;;;;;5.21;100.00;99474.06;5009956;28;20459;-61
2022/11/14 02:42:51;;;;;;;79.10;36.87;;;;;;;5.10;100.00;99460.28;5010739;28;20057;-63
2022/11/14 02:45:35;;;;;;;126.87;44.40;;;;;;;5.13;100.00;99479.03;5011465;28;20161;-62
2022/11/14 02:48:20;;;;;;;83.47;37.73;;;;;;;5.16;100.00;99468.03;5009347;28;20067;-60
2022/11/14 02:51:04;;;;;;;91.23;39.13;;;;;;;5.05;100.00;99450.06;5011356;28;20160;-61
2022/11/14 02:53:48;;;;;;;90.23;37.90;;;;;;;5.24;100.00;99459.69;5008806;28;20111;-62
2022/11/14 02:56:32;;;;;;;102.27;39.40;;;;;;;5.19;100.00;99463.84;5010804;28;20432;-61
2022/11/14 02:59:16;;;;;;;79.60;36.17;;;;;;;5.10;100.00;99445.06;5010631;28;20097;-61
2022/11/14 03:02:00;;;;;;;87.30;35.80;;;;;;;5.23;100.00;99460.53;5009991;28;20073;-62
2022/11/14 03:04:45;;;;;;;86.97;38.43;;;;;;;5.18;100.00;99446.88;5008466;28;20570;-61
2022/11/14 03:07:29;;;;;;;84.10;35.20;;;;;;;5.23;100.00;99459.66;5010357;28;20060;-61
2022/11/14 03:10:13;;;;;;;108.10;37.93;;;;;;;5.12;100.00;99431.56;5011393;28;20052;-61
2022/11/14 03:12:57;;;;;;;91.37;37.60;;;;;;;5.17;100.00;99454.50;5008890;28;20469;-60
2022/11/14 03:15:41;;;;;;;82.33;35.63;;;;;;;5.19;100.00;99455.38;5009807;28;20052;-62
2022/11/14 03:18:26;;;;;;;97.20;36.83;;;;;;;5.17;100.00;99450.28;5011445;28;20089;-61
2022/11/14 03:21:13;;;;;;;113.17;36.00;;;;;;;5.18;100.00;99446.06;5011873;28;20318;-61
2022/11/14 03:23:57;;;;;;;131.33;40.10;;;;;;;5.09;100.00;99440.81;5010467;28;20135;-61
2022/11/14 03:26:41;;;;;;;174.73;40.43;;;;;;;5.12;100.00;99456.09;5011855;28;21042;-62
2022/11/14 03:29:25;;;;;;;163.73;39.93;;;;;;;5.00;100.00;99433.91;5010468;28;20111;-62
2022/11/14 03:32:09;;;;;;;146.60;38.93;;;;;;;5.08;100.00;99455.22;5009320;28;20050;-61
2022/11/14 03:34:53;;;;;;;71.80;34.37;;;;;;;5.14;100.00;99459.50;5009741;28;20495;-61
2022/11/14 03:37:38;;;;;;;76.13;34.33;;;;;;;5.15;100.00;99457.00;5009465;28;20122;-62
2022/11/14 03:40:22;;;;;;;101.63;37.23;;;;;;;5.18;100.00;99461.31;5011838;28;20191;-61
2022/11/14 03:43:06;;;;;;;103.70;34.13;;;;;;;5.09;100.00;99453.53;5008607;28;20044;-63
2022/11/14 03:45:50;;;;;;;111.40;34.93;;;;;;;5.05;100.00;99442.44;5011951;28;20080;-62
2022/11/14 03:48:35;;;;;;;101.17;36.43;;;;;;;5.16;100.00;99461.28;5011390;28;20131;-61
2022/11/14 03:51:19;;;;;;;128.77;35.40;;;;;;;5.10;100.00;99445.91;5007882;28;20116;-62
2022/11/14 03:54:04;;;;;;;95.63;34.72;;;;;;;5.16;100.00;99460.41;5007205;28;20103;-61
2022/11/14 03:56:48;;;;;;;164.83;38.33;;;;;;;5.20;100.00;99457.94;5010238;28;20056;-61
2022/11/14 03:59:32;;;;;;;136.40;35.50;;;;;;;5.09;100.00;99436.59;5010232;28;20056;-62
2022/11/14 04:02:16;;;;;;;75.17;32.53;;;;;;;5.30;100.00;99448.78;5008897;28;20588;-61
2022/11/14 04:05:00;;;;;;;91.57;34.57;;;;;;;5.34;100.00;99440.38;5010262;28;20123;-62
2022/11/14 04:07:44;;;;;;;68.07;31.27;;;;;;;6.02;100.00;99450.66;5010729;28;20103;-62
2022/11/14 04:10:28;;;;;;;65.13;30.80;;;;;;;5.92;100.00;99422.53;5009121;28;20112;-62
2022/11/14 04:13:12;;;;;;;59.80;30.57;;;;;;;6.27;100.00;99434.81;5010618;28;20060;-61
2022/11/14 04:15:57;;;;;;;56.37;29.33;;;;;;;6.41;100.00;99436.66;5011787;28;20086;-61
2022/11/14 04:18:42;;;;;;;;;;;;;;;6.56;100.00;99428.31;5011501;28;20365;-61
2022/11/14 04:21:26;;;;;;;54.03;28.03;;;;;;;6.57;100.00;99429.19;5010457;28;20455;-62
2022/11/14 04:24:10;;;;;;;65.73;32.00;;;;;;;6.31;100.00;99434.88;5007660;28;20166;-60
2022/11/14 04:26:54;;;;;;;52.83;30.00;;;;;;;6.25;100.00;99434.78;5004498;28;20119;-61
2022/11/14 04:29:39;;;;;;;56.30;31.60;;;;;;;6.33;100.00;99394.97;5008970;28;20148;-61
2022/11/14 04:32:23;;;;;;;69.77;35.67;;;;;;;6.72;100.00;99412.34;5010378;28;20056;-61
2022/11/14 04:35:08;;;;;;;71.30;34.23;;;;;;;6.74;100.00;99414.91;5010995;28;20064;-62
2022/11/14 04:37:51;;;;;;;59.03;30.33;;;;;;;6.75;100.00;99416.59;5004265;28;20052;-62
2022/11/14 04:40:35;;;;;;;64.90;33.30;;;;;;;6.68;100.00;99404.66;5004583;28;20048;-62
2022/11/14 04:43:20;;;;;;;53.07;29.90;;;;;;;6.55;100.00;99395.19;5010856;28;20057;-61
2022/11/14 04:46:05;;;;;;;48.70;26.00;;;;;;;6.60;100.00;99384.22;5009854;28;20051;-61
2022/11/14 04:48:49;;;;;;;44.80;28.27;;;;;;;6.88;100.00;99405.66;5011104;28;20595;-61
2022/11/14 04:51:34;;;;;;;44.03;23.67;;;;;;;7.17;100.00;99405.91;5010922;28;20169;-61
2022/11/14 04:54:17;;;;;;;52.90;26.83;;;;;;;7.17;100.00;99409.28;5008997;28;20060;-61
2022/11/14 04:57:02;;;;;;;44.57;25.23;;;;;;;7.25;100.00;99397.47;5008364;28;20165;-61
2022/11/14 04:59:47;;;;;;;40.55;22.25;;;;;;;7.18;100.00;99399.94;5009366;28;20898;-62
2022/11/14 05:02:31;;;;;;;51.27;24.97;;;;;;;6.83;100.00;99400.53;5009258;28;20053;-61
2022/11/14 05:05:16;;;;;;;50.53;25.53;;;;;;;6.53;100.00;99389.25;5010477;28;20168;-62
2022/11/14 05:08:00;;;;;;;57.73;26.23;;;;;;;6.26;100.00;99392.38;5009215;28;20049;-61
2022/11/14 05:10:45;;;;;;;63.97;23.60;;;;;;;6.09;100.00;99386.25;5008290;28;20056;-61
2022/11/14 05:13:29;;;;;;;53.92;25.92;;;;;;;5.98;100.00;99391.22;5008978;28;20061;-62
2022/11/14 05:16:14;;;;;;;50.30;23.57;;;;;;;5.87;100.00;99401.25;5011586;28;20048;-62
2022/11/14 05:18:57;;;;;;;63.33;26.43;;;;;;;5.73;100.00;99409.53;5010214;28;20064;-62
2022/11/14 05:21:42;;;;;;;89.23;27.30;;;;;;;5.66;100.00;99407.72;5007394;28;20051;-61
2022/11/14 05:24:27;;;;;;;53.87;25.20;;;;;;;5.51;100.00;99395.69;5009589;28;20069;-62
2022/11/14 05:27:11;;;;;;;61.35;28.38;;;;;;;5.59;100.00;99422.06;5008950;28;20148;-60
2022/11/14 05:29:55;;;;;;;53.43;25.37;;;;;;;5.50;100.00;99394.81;5007515;28;20060;-61
2022/11/14 05:32:40;;;;;;;76.40;26.20;;;;;;;5.66;100.00;99423.00;5008973;28;20542;-62
2022/11/14 05:35:24;;;;;;;97.07;28.63;;;;;;;5.58;100.00;99416.94;5007449;28;20586;-62
2022/11/14 05:38:08;;;;;;;91.23;26.90;;;;;;;5.29;100.00;99408.94;5005941;28;20107;-62
2022/11/14 05:40:52;;;;;;;60.10;27.00;;;;;;;5.37;100.00;99418.38;5001856;28;20401;-61
2022/11/14 05:43:37;;;;;;;58.70;28.43;;;;;;;5.23;100.00;99384.25;5010257;28;20470;-61
2022/11/14 05:46:21;;;;;;;122.33;30.10;;;;;;;5.26;100.00;99407.19;5008807;28;20052;-62
2022/11/14 05:49:05;;;;;;;113.73;31.27;;;;;;;5.18;100.00;99413.84;5009399;28;20057;-62
2022/11/14 05:51:50;;;;;;;114.70;29.07;;;;;;;5.16;100.00;99415.53;5008475;28;20139;-62
2022/11/14 05:54:34;;;;;;;73.10;29.17;;;;;;;5.17;100.00;99414.69;5006613;28;20523;-62
2022/11/14 05:57:17;;;;;;;77.83;28.20;;;;;;;4.93;100.00;99399.06;5007808;28;20145;-61
2022/11/14 06:00:04;;;;;;;73.70;28.57;;;;;;;4.97;100.00;99403.34;5007539;28;20056;-61
2022/11/14 06:02:53;;;;;;;67.53;27.90;;;;;;;4.99;100.00;99382.22;5007226;28;20152;-61
2022/11/14 06:05:37;;;;;;;96.83;30.13;;;;;;;5.07;100.00;99397.59;5006593;28;20100;-64
2022/11/14 06:08:21;;;;;;;62.57;26.63;;;;;;;5.16;100.00;99394.31;5008495;28;20096;-63
2022/11/14 06:11:10;;;;;;;78.97;27.67;;;;;;;5.17;100.00;99398.59;5006946;28;20053;-60
2022/11/14 06:13:54;;;;;;;67.87;29.70;;;;;;;5.16;100.00;99405.34;5004609;28;20467;-64
2022/11/14 06:16:39;;;;;;;73.27;28.00;;;;;;;5.09;100.00;99393.41;5001695;28;20567;-62
2022/11/14 06:19:23;;;;;;;89.83;28.83;;;;;;;5.18;100.00;99416.38;5005515;28;20053;-61
2022/11/14 06:22:07;;;;;;;53.87;26.70;;;;;;;5.22;100.00;99413.06;5003939;28;20056;-62
2022/11/14 06:24:51;;;;;;;77.70;30.47;;;;;;;5.19;100.00;99413.00;5008589;28;20455;-60
2022/11/14 06:27:35;;;;;;;63.90;28.70;;;;;;;5.15;100.00;99423.97;5005523;28;20057;-61
2022/11/14 06:30:19;;;;;;;65.70;31.20;;;;;;;5.19;100.00;99420.63;5008216;28;20061;-61
2022/11/14 06:33:03;;;;;;;66.33;29.47;;;;;;;5.20;100.00;99414.72;5011156;28;20065;-62
2022/11/14 06:35:46;;;;;;;63.67;28.33;;;;;;;5.26;100.00;99424.16;5017116;28;20061;-65
2022/11/14 06:38:32;;;;;;;52.23;28.83;;;;;;;5.29;100.00;99427.59;5007704;28;20544;-61
2022/11/14 06:41:18;;;;;;;68.75;27.73;;;;;;;5.33;100.00;99423.41;5012359;28;20575;-63
2022/11/14 06:44:02;;;;;;;61.87;29.53;;;;;;;5.33;100.00;99431.03;5011342;28;20175;-63
2022/11/14 06:46:48;;;;;;;71.50;30.23;;;;;;;5.28;100.00;99428.41;5005178;28;20411;-63
2022/11/14 06:49:31;;;;;;;87.80;31.77;;;;;;;5.28;100.00;99423.31;5005766;28;20080;-63
2022/11/14 06:52:16;;;;;;;58.17;27.53;;;;;;;5.25;100.00;99402.94;5009902;28;20128;-63
2022/11/14 06:55:00;;;;;;;50.37;28.13;;;;;;;5.42;100.00;99411.66;5008800;28;20068;-62
2022/11/14 06:57:44;;;;;;;82.20;31.23;;;;;;;5.44;100.00;99421.84;5009986;28;20144;-63
2022/11/14 07:00:29;;;;;;;61.27;28.23;;;;;;;5.34;100.00;99407.31;5008950;28;20946;-61
2022/11/14 07:03:13;;;;;;;86.27;31.80;;;;;;;5.34;100.00;99402.22;5009699;28;20054;-63
2022/11/14 07:05:58;;;;;;;56.50;29.70;;;;;;;5.57;100.00;99430.50;5012037;28;20119;-62
2022/11/14 07:08:43;;;;;;;52.17;25.48;;;;;;;5.62;100.00;99419.56;5011017;28;20417;-61
2022/11/14 07:11:28;;;;;;;58.10;28.93;;;;;;;5.62;100.00;99413.63;5010921;28;20053;-62
2022/11/14 07:14:12;;;;;;;64.43;32.63;;;;;;;5.71;100.00;99434.94;5021394;28;20053;-62
2022/11/14 07:16:57;;;;;;;60.50;31.57;;;;;;;5.79;100.00;99418.09;5009494;28;20143;-62
2022/11/14 07:19:41;;;;;;;66.87;31.63;;;;;;;5.97;100.00;99437.88;5010968;28;20048;-63
2022/11/14 07:22:25;;;;;;;62.43;31.30;;;;;;;5.95;100.00;99431.88;5011995;28;20409;-63
2022/11/14 07:25:09;;;;;;;64.07;31.53;;;;;;;5.98;100.00;99445.50;5010207;28;20060;-62
2022/11/14 07:27:56;;;;;;;76.20;37.93;;;;;;;6.11;100.00;99451.59;5010949;28;20127;-62
2022/11/14 07:30:41;;;;;;;79.33;36.47;;;;;;;6.08;100.00;99435.44;5004225;28;20044;-62
2022/11/14 07:33:25;;;;;;;62.47;33.83;;;;;;;6.16;100.00;99438.91;5002884;28;20060;-64
2022/11/14 07:36:13;;;;;;;64.93;33.57;;;;;;;6.12;100.00;99422.75;5010864;28;20080;-64
2022/11/14 07:38:57;;;;;;;64.00;31.93;;;;;;;6.37;100.00;99440.00;5008174;28;20735;-64
2022/11/14 07:41:41;;;;;;;62.47;32.60;;;;;;;6.33;100.00;99434.88;5008863;28;20055;-65
2022/11/14 07:44:26;;;;;;;66.73;34.57;;;;;;;6.18;100.00;99407.56;5008624;28;20111;-65
2022/11/14 07:47:10;;;;;;;69.43;33.20;;;;;;;6.47;100.00;99438.41;5010693;28;20575;-63
2022/11/14 07:49:55;;;;;;;59.33;32.27;;;;;;;6.55;100.00;99441.91;5010649;28;20655;-68
2022/11/14 07:52:38;;;;;;;59.13;31.57;;;;;;;6.59;100.00;99435.13;5012475;28;20072;-65
2022/11/14 07:55:23;;;;;;;60.17;32.53;;;;;;;6.58;100.00;99408.81;5009659;28;20111;-64
2022/11/14 07:58:07;;;;;;;65.53;34.17;;;;;;;6.68;100.00;99425.03;5009912;28;20116;-64
2022/11/14 08:00:51;;;;;;;63.47;33.70;;;;;;;6.61;100.00;99408.00;5008763;28;20607;-66
2022/11/14 08:03:36;;;;;;;56.10;30.83;;;;;;;6.71;100.00;99402.97;5010518;28;20132;-65
2022/11/14 08:06:21;;;;;;;59.80;31.73;;;;;;;6.77;100.00;99412.38;5008261;28;20089;-65
2022/11/14 08:09:05;;;;;;;63.17;33.53;;;;;;;6.97;100.00;99426.13;5004291;28;20103;-65
2022/11/14 08:11:49;;;;;;;62.83;32.70;;;;;;;6.94;100.00;99428.66;5010022;28;20531;-65
2022/11/14 08:14:34;;;;;;;57.27;31.83;;;;;;;7.00;100.00;99431.25;5013258;28;20057;-64
2022/11/14 08:17:19;;;;;;;62.20;35.07;;;;;;;7.09;100.00;99418.56;5010524;28;20052;-66
2022/11/14 08:20:05;;;;;;;56.10;32.40;;;;;;;7.03;100.00;99420.25;5009329;28;20055;-65
2022/11/14 08:22:53;;;;;;;62.13;32.83;;;;;;;7.14;100.00;99411.81;5009793;28;20711;-65
2022/11/14 08:25:37;;;;;;;62.75;33.00;;;;;;;7.31;100.00;99410.25;4999492;28;21193;-65
2022/11/14 08:28:22;;;;;;;50.30;30.57;;;;;;;7.34;100.00;99397.50;4993928;28;20112;-64
2022/11/14 08:31:05;;;;;;;49.27;29.33;;;;;;;7.50;100.00;99406.13;5010006;28;20104;-66
2022/11/14 08:33:53;;;;;;;50.00;30.73;;;;;;;7.64;100.00;99413.81;5022197;28;20056;-65
2022/11/14 08:36:37;;;;;;;53.85;30.00;;;;;;;7.66;100.00;99407.91;5010537;28;20061;-64
2022/11/14 08:39:21;;;;;;;58.53;30.30;;;;;;;7.56;100.00;99395.06;5013103;28;20298;-64
2022/11/14 08:42:05;;;;;;;68.68;32.63;;;;;;;7.68;100.00;99411.28;5004141;28;20551;-65
2022/11/14 08:44:49;;;;;;;56.72;33.05;;;;;;;7.61;100.00;99390.84;5009681;28;20053;-65
2022/11/14 08:47:33;;;;;;;58.05;30.95;;;;;;;7.74;100.00;99400.28;5008168;28;20057;-67
2022/11/14 08:50:18;;;;;;;53.10;29.50;;;;;;;7.97;100.00;99400.38;5009421;28;20088;-66
2022/11/14 08:53:02;;;;;;;51.03;28.13;;;;;;;7.96;100.00;99401.22;5010118;28;20057;-66
2022/11/14 08:55:47;;;;;;;43.45;25.73;;;;;;;7.94;100.00;99405.47;5012255;28;20208;-67
2022/11/14 08:58:32;;;;;;;42.25;25.45;;;;;;;7.86;100.00;99385.00;5011372;28;20065;-67
2022/11/14 09:01:16;;;;;;;41.60;24.98;;;;;;;8.11;100.00;99388.50;5010456;28;20180;-67
2022/11/14 09:04:00;;;;;;;37.75;23.00;;;;;;;8.70;100.00;99383.53;5009646;28;20064;-65
2022/11/14 09:06:45;;;;;;;37.85;23.50;;;;;;;9.17;100.00;99397.16;5007451;28;20194;-66
2022/11/14 09:09:29;;;;;;;34.08;21.38;;;;;;;9.39;100.00;99405.66;5002577;28;20684;-61
2022/11/14 09:12:13;;;;;;;31.60;20.73;;;;;;;9.27;100.00;99404.81;5007366;28;20123;-65
2022/11/14 09:14:58;;;;;;;34.40;22.45;;;;;;;9.33;100.00;99400.56;5002778;28;20129;-66
2022/11/14 09:17:42;;;;;;;35.60;21.20;;;;;;;9.08;100.00;99399.72;5006834;28;20074;-66
2022/11/14 09:20:29;;;;;;;31.38;20.20;;;;;;;9.18;100.00;99393.75;5007731;28;20077;-66
2022/11/14 09:23:13;;;;;;;33.28;21.63;;;;;;;8.89;100.00;99372.47;5009300;28;20073;-66
2022/11/14 09:25:57;;;;;;;32.00;22.13;;;;;;;8.84;100.00;99389.50;5009248;28;20048;-66
2022/11/14 09:28:41;;;;;;;32.45;20.70;;;;;;;9.08;100.00;99363.91;5006282;28;20078;-65
2022/11/14 09:31:25;;;;;;;39.75;22.55;;;;;;;8.69;100.00;99377.59;5002390;28;20454;-66
2022/11/14 09:34:10;;;;;;;46.40;24.03;;;;;;;8.71;100.00;99383.53;5003495;28;20204;-65
2022/11/14 09:36:54;;;;;;;38.93;23.47;;;;;;;8.26;100.00;99335.75;5006379;28;20203;-65
2022/11/14 09:39:39;;;;;;;40.40;26.10;;;;;;;8.34;100.00;99376.69;5008592;28;20341;-65
2022/11/14 09:43:01;;;;;;;40.78;23.33;;;;;;;8.27;100.00;99372.38;5007062;28;20133;-64
2022/11/14 09:45:50;;;;;;;36.65;21.80;;;;;;;8.14;100.00;99366.41;5007428;28;20429;-66
2022/11/14 09:48:34;;;;;;;38.83;23.73;;;;;;;7.88;100.00;99362.06;5005716;28;20088;-65
2022/11/14 09:51:22;;;;;;;37.42;24.08;;;;;;;7.94;100.00;99356.94;5008982;28;20522;-66
2022/11/14 09:54:25;;;;;;;45.25;26.30;;;;;;;7.79;100.00;99335.66;5012550;28;20587;-65
2022/11/14 09:57:19;;;;;;;35.88;23.90;;;;;;;8.04;100.00;99349.34;5006742;28;20056;-66
2022/11/14 10:00:16;;;;;;;38.17;22.83;;;;;;;8.28;100.00;99348.53;5008759;28;20538;-65
2022/11/14 10:03:15;;;;;;;38.53;23.08;;;;;;;8.04;100.00;99326.34;5011278;28;20620;-65
2022/11/14 10:06:11;;;;;;;37.92;22.60;;;;;;;8.26;100.00;99348.53;5012882;28;20150;-67
2022/11/14 10:09:11;;;;;;;39.90;24.30;;;;;;;8.33;100.00;99349.41;5013525;28;20877;-66
2022/11/14 10:12:20;;;;;;;37.53;23.38;;;;;;;8.36;100.00;99331.53;5010849;28;20681;-67
2022/11/14 10:15:13;;;;;;;44.03;25.15;;;;;;;8.42;100.00;99335.81;5010595;28;20372;-65
2022/11/14 10:18:19;;;;;;;35.38;23.60;;;;;;;8.38;100.00;99321.31;5010090;28;20133;-65
2022/11/14 10:21:11;;;;;;;38.58;24.45;;;;;;;8.32;100.00;99322.16;5011259;28;20107;-66
2022/11/14 10:23:59;;;;;;;39.08;25.02;;;;;;;8.06;100.00;99319.53;5010748;28;20523;-66
2022/11/14 10:27:01;;;;;;;40.97;25.63;;;;;;;8.09;100.00;99306.78;5011581;28;20203;-66
2022/11/14 10:30:00;;;;;;;41.30;24.77;;;;;;;8.14;100.00;99294.88;5011795;28;20133;-65
2022/11/14 10:33:04;;;;;;;42.78;24.50;;;;;;;8.21;100.00;99306.81;5010946;28;20045;-65
2022/11/14 10:36:10;;;;;;;38.83;24.50;;;;;;;7.98;100.00;99299.94;5004969;28;20195;-64
2022/11/14 10:39:10;;;;;;;44.83;26.60;;;;;;;7.75;100.00;99292.25;5005857;28;20185;-67
2022/11/14 10:41:59;;;;;;;44.55;25.77;;;;;;;7.61;100.00;99276.03;5016743;28;20494;-63
2022/11/14 10:44:52;;;;;;;40.60;24.08;;;;;;;7.85;100.00;99282.91;5008204;28;20513;-64
2022/11/14 10:47:45;;;;;;;44.00;25.38;;;;;;;7.87;100.00;99282.06;5010328;28;20067;-65
2022/11/14 10:50:46;;;;;;;46.17;27.08;;;;;;;7.80;100.00;99252.28;5009916;28;20044;-63
2022/11/14 10:53:44;;;;;;;44.47;26.60;;;;;;;7.85;100.00;99267.59;5012291;28;20111;-62
2022/11/14 10:56:29;;;;;;;49.65;29.13;;;;;;;7.94;100.00;99252.28;5010292;28;20161;-65
2022/11/14 10:59:13;;;;;;;47.70;26.48;;;;;;;8.04;100.00;99252.31;4999380;28;20638;-65
2022/11/14 11:01:58;;;;;;;48.17;27.20;;;;;;;7.99;100.00;99268.47;5007929;28;20515;-65
2022/11/14 11:04:44;;;;;;;46.72;26.77;;;;;;;8.14;100.00;99260.84;5010065;28;20530;-63
2022/11/14 11:13:47;;;;;;;47.67;29.27;;;;;;;8.09;100.00;99253.16;5010403;28;20052;-61
2022/11/14 11:16:31;;;;;;;48.40;27.95;;;;;;;8.13;100.00;99257.44;5012341;28;20455;-62
2022/11/14 11:19:23;;;;;;;58.53;32.50;;;;;;;7.98;100.00;99249.72;5011133;28;20052;-61
2022/11/14 11:22:22;;;;;;;54.22;30.85;;;;;;;8.10;100.00;99251.47;5011320;28;20049;-61
2022/11/14 11:25:28;;;;;;;57.72;35.22;;;;;;;8.05;100.00;99250.59;5009574;28;20049;-60
2022/11/14 11:28:18;;;;;;;73.07;40.45;;;;;;;8.02;100.00;99253.16;5012089;28;20076;-62
2022/11/14 11:31:08;;;;;;;73.00;40.55;;;;;;;8.00;100.00;99244.63;5010297;28;20103;-63
2022/11/14 11:33:53;;;;;;;68.60;35.53;;;;;;;7.96;100.00;99241.22;4990096;28;20052;-61
2022/11/14 11:36:42;;;;;;;85.95;45.97;;;;;;;7.97;100.00;99242.09;5007431;28;20067;-61
2022/11/14 11:39:30;;;;;;;95.57;45.50;;;;;;;7.73;100.00;99210.56;5010555;28;20044;-61
2022/11/14 11:42:41;;;;;;;81.63;49.67;;;;;;;7.90;100.00;99219.94;5008342;28;20048;-62
2022/11/14 11:45:27;;;;;;;60.47;37.60;;;;;;;7.62;100.00;99203.75;5010864;28;20088;-61
2022/11/14 11:48:20;;;;;;;54.45;32.00;;;;;;;7.69;100.00;99205.44;5009552;28;20061;-62
2022/11/14 11:51:11;;;;;;;52.35;29.70;;;;;;;7.59;100.00;99196.94;5011651;28;20076;-62
2022/11/14 11:54:17;;;;;;;55.55;30.98;;;;;;;7.80;100.00;99214.00;5010440;28;20459;-62
2022/11/14 11:57:11;;;;;;;53.72;30.83;;;;;;;7.78;100.00;99213.97;5013013;28;20057;-61
2022/11/14 12:00:04;;;;;;;54.97;31.92;;;;;;;7.79;100.00;99209.72;5011159;28;20431;-61
2022/11/14 12:02:51;;;;;;;54.95;31.40;;;;;;;8.13;100.00;99214.00;5011614;28;20137;-61
2022/11/14 12:05:45;;;;;;;52.47;29.08;;;;;;;7.84;100.00;99187.63;5009911;28;20060;-62
2022/11/14 12:09:04;;;;;;;47.33;28.10;;;;;;;7.88;100.00;99204.63;5011095;28;20260;-61
2022/11/14 12:11:56;;;;;;;49.10;27.77;;;;;;;8.02;100.00;99200.38;5012170;28;20844;-63
2022/11/14 12:15:18;;;;;;;53.63;28.45;;;;;;;8.01;100.00;99191.03;5010058;28;20088;-62
2022/11/14 12:18:05;;;;;;;53.00;30.50;;;;;;;8.07;100.00;99188.47;5010700;28;20076;-62
2022/11/14 12:21:04;;;;;;;47.42;28.48;;;;;;;8.17;100.00;99186.75;5006605;28;20099;-61
2022/11/14 12:23:58;;;;;;;50.10;28.65;;;;;;;8.20;100.00;99177.38;5007602;28;20036;-62
2022/11/14 12:26:51;;;;;;;50.25;30.25;;;;;;;8.23;100.00;99177.38;5008059;28;20112;-61
2022/11/14 12:30:13;;;;;;;51.53;29.45;;;;;;;8.50;100.00;99173.13;5008302;28;20215;-63
2022/11/14 12:33:08;;;;;;;54.67;29.98;;;;;;;8.65;100.00;99171.41;5021778;28;20523;-62
2022/11/14 12:35:56;;;;;;;46.78;27.88;;;;;;;8.54;100.00;99177.38;5004289;28;20389;-62
2022/11/14 12:38:42;;;;;;;49.13;29.23;;;;;;;8.59;100.00;99152.66;5002267;28;20308;-62
2022/11/14 12:41:33;;;;;;;48.58;28.98;;;;;;;8.70;100.00;99148.34;5002685;28;20155;-63
2022/11/14 12:44:26;;;;;;;41.33;26.88;;;;;;;8.54;100.00;99131.38;5009037;28;20484;-61
2022/11/14 12:47:13;;;;;;;46.58;28.92;;;;;;;8.61;100.00;99145.84;5008959;28;20071;-62
2022/11/14 12:49:59;;;;;;;46.25;30.45;;;;;;;8.65;100.00;99139.88;5009364;28;20060;-61
2022/11/14 12:52:48;;;;;;;49.22;31.77;;;;;;;8.70;100.00;99162.00;5008929;28;20044;-62